Portada
METAR-TAF:

METAR-TAF

Aeropuertos :

Aeropuerto Internacional de Honiara

Honiara, Guadalcanal, Islas Salomón

latitud: 09-25S, longitud: 160-03E, altitud: 8 m

Observación

El informe se hizo hace 47 minutos, a las 19:00 UTC
Viento 2 kt del sur
Temperatura 24°C
Humedad 100%
Presión 1007 hPa
Visibilidad 10 km o más
Escasas nubes a una altura de 1400 ft

METAR: AGGH 181900Z 18002KT 9999 FEW014 24/24 Q1007

Hora: 06:47 (19:47 UTC)

Pronóstico

El informe se hizo hace 2 horas y 32 minutos, a las 17:15 UTC
Pronóstico válido del 18 a las 18 UTC al 19 a las 18 UTC
Viento 10 kt del noreste
Visibilidad 10 km o más
Nubes dispersas a una altura de 1800 ft
Probabilidad 40%
entre IN y TE UTC
Visibilidad: 1006 m
Cielo nuboso a una altura de 1600 ft
Escasas nubes a una altura de 1700 ft, Cumulonimbus.

TAF: AGGH 181715Z 1818/1918 05010KT 9999 SCT018 PROB40 INTER 1901/1906 5000 TSSH BKN016 FEW017CB T 24 25 30 31 Q 1006 1008 1008 1006

Observaciones y pronósticos meteorológicos de más de 4000 aeropuertos (mensajes METAR y TAF).

Los puntos amarillos y rojos representan las estaciones disponibles.

Ponga el ratón en el punto deseado para ver el nombre de la estación.

Haga clic para ver las observaciones y los pronósticos meteorológicos.

Para cambiar el mapa : haga clic en los botones verdes con una cruz de color negro para hacer un zoom, en el botón verde con un guión para alejar o en las flechas verdes para mapas adyacentes.


METAR-TAF: